sensor_id;sensor_type;location;lat;lon;timestamp;pressure;altitude;pressure_sealevel;temperature
78917;BMP280;68315;48.608;11.436;2023-04-19T00:02:05;97729.88;;;8.73
78917;BMP280;68315;48.608;11.436;2023-04-19T00:04:33;97728.38;;;8.72
78917;BMP280;68315;48.608;11.436;2023-04-19T00:06:58;97731.09;;;8.72
78917;BMP280;68315;48.608;11.436;2023-04-19T00:09:24;97727.63;;;8.71
78917;BMP280;68315;48.608;11.436;2023-04-19T00:11:51;97726.88;;;8.71
78917;BMP280;68315;48.608;11.436;2023-04-19T00:14:16;97728.13;;;8.70
78917;BMP280;68315;48.608;11.436;2023-04-19T00:16:41;97721.41;;;8.71
78917;BMP280;68315;48.608;11.436;2023-04-19T00:19:07;97718.41;;;8.69
78917;BMP280;68315;48.608;11.436;2023-04-19T00:21:32;97716.41;;;8.69
78917;BMP280;68315;48.608;11.436;2023-04-19T00:23:57;97720.41;;;8.68
78917;BMP280;68315;48.608;11.436;2023-04-19T00:26:23;97716.91;;;8.68
78917;BMP280;68315;48.608;11.436;2023-04-19T00:28:48;97710.69;;;8.67
78917;BMP280;68315;48.608;11.436;2023-04-19T00:31:13;97712.69;;;8.67
78917;BMP280;68315;48.608;11.436;2023-04-19T00:33:39;97711.94;;;8.66
78917;BMP280;68315;48.608;11.436;2023-04-19T00:36:04;97704.25;;;8.65
78917;BMP280;68315;48.608;11.436;2023-04-19T00:38:29;97707.94;;;8.67
78917;BMP280;68315;48.608;11.436;2023-04-19T00:40:55;97701.72;;;8.67
78917;BMP280;68315;48.608;11.436;2023-04-19T00:43:20;97708.69;;;8.68
78917;BMP280;68315;48.608;11.436;2023-04-19T00:45:46;97700.25;;;8.66
78917;BMP280;68315;48.608;11.436;2023-04-19T00:48:12;97701.50;;;8.65
78917;BMP280;68315;48.608;11.436;2023-04-19T00:50:39;97702.25;;;8.65
78917;BMP280;68315;48.608;11.436;2023-04-19T00:53:06;97705.47;;;8.64
78917;BMP280;68315;48.608;11.436;2023-04-19T00:55:32;97700.75;;;8.64
78917;BMP280;68315;48.608;11.436;2023-04-19T00:57:58;97699.25;;;8.63
78917;BMP280;68315;48.608;11.436;2023-04-19T01:00:23;97686.31;;;8.64
78917;BMP280;68315;48.608;11.436;2023-04-19T01:02:49;97685.56;;;8.63
78917;BMP280;68315;48.608;11.436;2023-04-19T01:05:14;97695.78;;;8.63
78917;BMP280;68315;48.608;11.436;2023-04-19T01:07:39;97689.03;;;8.64
78917;BMP280;68315;48.608;11.436;2023-04-19T01:10:05;97674.59;;;8.63
78917;BMP280;68315;48.608;11.436;2023-04-19T01:12:30;97675.34;;;8.64
78917;BMP280;68315;48.608;11.436;2023-04-19T01:14:56;97675.09;;;8.62
78917;BMP280;68315;48.608;11.436;2023-04-19T01:17:21;97680.59;;;8.62
78917;BMP280;68315;48.608;11.436;2023-04-19T01:19:46;97671.63;;;8.61
78917;BMP280;68315;48.608;11.436;2023-04-19T01:22:18;97670.88;;;8.61
78917;BMP280;68315;48.608;11.436;2023-04-19T01:24:43;97674.34;;;8.61
78917;BMP280;68315;48.608;11.436;2023-04-19T01:27:08;97663.91;;;8.60
78917;BMP280;68315;48.608;11.436;2023-04-19T01:29:34;97665.38;;;8.61
78917;BMP280;68315;48.608;11.436;2023-04-19T01:31:59;97658.69;;;8.62
78917;BMP280;68315;48.608;11.436;2023-04-19T01:34:24;97663.41;;;8.61
78917;BMP280;68315;48.608;11.436;2023-04-19T01:36:50;97659.91;;;8.61
78917;BMP280;68315;48.608;11.436;2023-04-19T01:39:15;97658.44;;;8.60
78917;BMP280;68315;48.608;11.436;2023-04-19T01:41:41;97655.69;;;8.60
78917;BMP280;68315;48.608;11.436;2023-04-19T01:44:06;97655.69;;;8.60
78917;BMP280;68315;48.608;11.436;2023-04-19T01:46:31;97651.69;;;8.61
78917;BMP280;68315;48.608;11.436;2023-04-19T01:48:57;97651.44;;;8.58
78917;BMP280;68315;48.608;11.436;2023-04-19T01:51:22;97644.47;;;8.57
78917;BMP280;68315;48.608;11.436;2023-04-19T01:53:47;97643.00;;;8.56
78917;BMP280;68315;48.608;11.436;2023-04-19T01:56:18;97647.75;;;8.56
78917;BMP280;68315;48.608;11.436;2023-04-19T01:58:43;97639.00;;;8.57
78917;BMP280;68315;48.608;11.436;2023-04-19T02:01:09;97644.00;;;8.59
78917;BMP280;68315;48.608;11.436;2023-04-19T02:03:37;97644.00;;;8.59
78917;BMP280;68315;48.608;11.436;2023-04-19T02:06:02;97640.50;;;8.58
78917;BMP280;68315;48.608;11.436;2023-04-19T02:08:27;97637.00;;;8.58
78917;BMP280;68315;48.608;11.436;2023-04-19T02:10:53;97642.72;;;8.60
78917;BMP280;68315;48.608;11.436;2023-04-19T02:13:18;97627.56;;;8.59
78917;BMP280;68315;48.608;11.436;2023-04-19T02:15:43;97621.31;;;8.58
78917;BMP280;68315;48.608;11.436;2023-04-19T02:18:08;97623.31;;;8.58
78917;BMP280;68315;48.608;11.436;2023-04-19T02:20:35;97615.84;;;8.58
78917;BMP280;68315;48.608;11.436;2023-04-19T02:23:01;97627.56;;;8.59
78917;BMP280;68315;48.608;11.436;2023-04-19T02:25:26;97622.06;;;8.59
78917;BMP280;68315;48.608;11.436;2023-04-19T02:27:51;97618.06;;;8.60
78917;BMP280;68315;48.608;11.436;2023-04-19T02:30:17;97624.31;;;8.61
78917;BMP280;68315;48.608;11.436;2023-04-19T02:32:43;97623.53;;;8.60
78917;BMP280;68315;48.608;11.436;2023-04-19T02:35:08;97617.34;;;8.60
78917;BMP280;68315;48.608;11.436;2023-04-19T02:37:34;97613.84;;;8.59
78917;BMP280;68315;48.608;11.436;2023-04-19T02:39:59;97615.84;;;8.58
78917;BMP280;68315;48.608;11.436;2023-04-19T02:42:24;97613.09;;;8.58
78917;BMP280;68315;48.608;11.436;2023-04-19T02:44:50;97622.81;;;8.60
78917;BMP280;68315;48.608;11.436;2023-04-19T02:47:15;97613.09;;;8.58
78917;BMP280;68315;48.608;11.436;2023-04-19T02:49:40;97608.88;;;8.57
78917;BMP280;68315;48.608;11.436;2023-04-19T02:52:06;97610.38;;;8.58
78917;BMP280;68315;48.608;11.436;2023-04-19T02:54:32;97615.84;;;8.58
78917;BMP280;68315;48.608;11.436;2023-04-19T02:57:01;97611.59;;;8.57
78917;BMP280;68315;48.608;11.436;2023-04-19T02:59:26;97608.16;;;8.57
78917;BMP280;68315;48.608;11.436;2023-04-19T03:01:52;97605.63;;;8.59
78917;BMP280;68315;48.608;11.436;2023-04-19T03:04:17;97602.16;;;8.58
78917;BMP280;68315;48.608;11.436;2023-04-19T03:06:42;97601.41;;;8.58
78917;BMP280;68315;48.608;11.436;2023-04-19T03:09:08;97603.38;;;8.57
78917;BMP280;68315;48.608;11.436;2023-04-19T03:11:34;97590.97;;;8.56
78917;BMP280;68315;48.608;11.436;2023-04-19T03:13:59;97588.72;;;8.55
78917;BMP280;68315;48.608;11.436;2023-04-19T03:16:25;97594.97;;;8.55
78917;BMP280;68315;48.608;11.436;2023-04-19T03:18:50;97591.47;;;8.55
78917;BMP280;68315;48.608;11.436;2023-04-19T03:21:15;97587.97;;;8.54
78917;BMP280;68315;48.608;11.436;2023-04-19T03:23:41;97587.25;;;8.54
78917;BMP280;68315;48.608;11.436;2023-04-19T03:26:06;97577.53;;;8.53
78917;BMP280;68315;48.608;11.436;2023-04-19T03:28:32;97576.78;;;8.52
78917;BMP280;68315;48.608;11.436;2023-04-19T03:30:57;97576.03;;;8.52
78917;BMP280;68315;48.608;11.436;2023-04-19T03:33:22;97580.03;;;8.51
78917;BMP280;68315;48.608;11.436;2023-04-19T03:35:47;97575.81;;;8.50
78917;BMP280;68315;48.608;11.436;2023-04-19T03:38:13;97575.56;;;8.48
78917;BMP280;68315;48.608;11.436;2023-04-19T03:40:38;97567.34;;;8.48
78917;BMP280;68315;48.608;11.436;2023-04-19T03:43:03;97570.09;;;8.48
78917;BMP280;68315;48.608;11.436;2023-04-19T03:45:29;97568.59;;;8.47
78917;BMP280;68315;48.608;11.436;2023-04-19T03:47:55;97564.38;;;8.46
78917;BMP280;68315;48.608;11.436;2023-04-19T03:50:20;97572.59;;;8.46
78917;BMP280;68315;48.608;11.436;2023-04-19T03:52:45;97563.66;;;8.45
78917;BMP280;68315;48.608;11.436;2023-04-19T03:55:10;97565.63;;;8.45
78917;BMP280;68315;48.608;11.436;2023-04-19T03:57:39;97557.91;;;8.43
78917;BMP280;68315;48.608;11.436;2023-04-19T04:00:05;97570.38;;;8.44
78917;BMP280;68315;48.608;11.436;2023-04-19T04:02:36;97560.66;;;8.43
78917;BMP280;68315;48.608;11.436;2023-04-19T04:05:01;97568.38;;;8.45
78917;BMP280;68315;48.608;11.436;2023-04-19T04:07:27;97567.63;;;8.44
78917;BMP280;68315;48.608;11.436;2023-04-19T04:09:52;97574.34;;;8.43
78917;BMP280;68315;48.608;11.436;2023-04-19T04:12:17;97576.84;;;8.41
78917;BMP280;68315;48.608;11.436;2023-04-19T04:14:42;97571.38;;;8.41
78917;BMP280;68315;48.608;11.436;2023-04-19T04:17:08;97565.66;;;8.39
78917;BMP280;68315;48.608;11.436;2023-04-19T04:19:33;97575.09;;;8.38
78917;BMP280;68315;48.608;11.436;2023-04-19T04:21:59;97575.84;;;8.39
78917;BMP280;68315;48.608;11.436;2023-04-19T04:24:24;97573.59;;;8.37
78917;BMP280;68315;48.608;11.436;2023-04-19T04:26:50;97582.56;;;8.38
78917;BMP280;68315;48.608;11.436;2023-04-19T04:29:16;97569.63;;;8.38
78917;BMP280;68315;48.608;11.436;2023-04-19T04:31:41;97583.31;;;8.38
78917;BMP280;68315;48.608;11.436;2023-04-19T04:34:06;97583.31;;;8.38
78917;BMP280;68315;48.608;11.436;2023-04-19T04:36:34;97573.59;;;8.37
78917;BMP280;68315;48.608;11.436;2023-04-19T04:39:04;97575.84;;;8.39
78917;BMP280;68315;48.608;11.436;2023-04-19T04:41:30;97575.84;;;8.39
78917;BMP280;68315;48.608;11.436;2023-04-19T04:43:59;97576.09;;;8.41
78917;BMP280;68315;48.608;11.436;2023-04-19T04:46:25;97572.59;;;8.40
78917;BMP280;68315;48.608;11.436;2023-04-19T04:48:51;97577.59;;;8.42
78917;BMP280;68315;48.608;11.436;2023-04-19T04:51:17;97574.09;;;8.41
78917;BMP280;68315;48.608;11.436;2023-04-19T04:53:42;97572.59;;;8.40
78917;BMP280;68315;48.608;11.436;2023-04-19T04:56:07;97574.63;;;8.40
78917;BMP280;68315;48.608;11.436;2023-04-19T04:58:33;97579.56;;;8.41
78917;BMP280;68315;48.608;11.436;2023-04-19T05:00:58;97575.09;;;8.38
78917;BMP280;68315;48.608;11.436;2023-04-19T05:03:24;97573.84;;;8.39
78917;BMP280;68315;48.608;11.436;2023-04-19T05:05:50;97575.34;;;8.40
78917;BMP280;68315;48.608;11.436;2023-04-19T05:08:16;97570.63;;;8.41
78917;BMP280;68315;48.608;11.436;2023-04-19T05:10:41;97569.38;;;8.42
78917;BMP280;68315;48.608;11.436;2023-04-19T05:13:06;97572.34;;;8.44
78917;BMP280;68315;48.608;11.436;2023-04-19T05:15:31;97573.84;;;8.45
78917;BMP280;68315;48.608;11.436;2023-04-19T05:17:57;97571.88;;;8.45
78917;BMP280;68315;48.608;11.436;2023-04-19T05:20:22;97572.06;;;8.47
78917;BMP280;68315;48.608;11.436;2023-04-19T05:22:47;97567.06;;;8.51
78917;BMP280;68315;48.608;11.436;2023-04-19T05:25:12;97577.03;;;8.54
78917;BMP280;68315;48.608;11.436;2023-04-19T05:27:38;97563.56;;;8.56
78917;BMP280;68315;48.608;11.436;2023-04-19T05:30:04;97566.53;;;8.58
78917;BMP280;68315;48.608;11.436;2023-04-19T05:32:30;97570.78;;;8.60
78917;BMP280;68315;48.608;11.436;2023-04-19T05:34:56;97569.53;;;8.61
78917;BMP280;68315;48.608;11.436;2023-04-19T05:37:21;97568.28;;;8.62
78917;BMP280;68315;48.608;11.436;2023-04-19T05:39:48;97569.28;;;8.64
78917;BMP280;68315;48.608;11.436;2023-04-19T05:42:13;97557.28;;;8.67
78917;BMP280;68315;48.608;11.436;2023-04-19T05:44:38;97564.25;;;8.74
78917;BMP280;68315;48.608;11.436;2023-04-19T05:47:04;97560.47;;;8.77
78917;BMP280;68315;48.608;11.436;2023-04-19T05:49:29;97565.19;;;8.82
78917;BMP280;68315;48.608;11.436;2023-04-19T05:51:54;97560.13;;;8.86
78917;BMP280;68315;48.608;11.436;2023-04-19T05:54:21;97564.63;;;8.89
78917;BMP280;68315;48.608;11.436;2023-04-19T05:56:46;97562.09;;;8.96
78917;BMP280;68315;48.608;11.436;2023-04-19T05:59:11;97565.28;;;9.00
78917;BMP280;68315;48.608;11.436;2023-04-19T06:01:38;97558.53;;;9.07
78917;BMP280;68315;48.608;11.436;2023-04-19T06:04:03;97557.22;;;9.13
78917;BMP280;68315;48.608;11.436;2023-04-19T06:06:28;97560.44;;;9.17
78917;BMP280;68315;48.608;11.436;2023-04-19T06:08:53;97553.88;;;9.26
78917;BMP280;68315;48.608;11.436;2023-04-19T06:11:19;97555.09;;;9.30
78917;BMP280;68315;48.608;11.436;2023-04-19T06:13:44;97552.81;;;9.34
78917;BMP280;68315;48.608;11.436;2023-04-19T06:16:10;97550.03;;;9.40
78917;BMP280;68315;48.608;11.436;2023-04-19T06:18:35;97550.19;;;9.48
78917;BMP280;68315;48.608;11.436;2023-04-19T06:21:01;97551.38;;;9.58
78917;BMP280;68315;48.608;11.436;2023-04-19T06:23:26;97548.50;;;9.69
78917;BMP280;68315;48.608;11.436;2023-04-19T06:25:51;97539.41;;;9.79
78917;BMP280;68315;48.608;11.436;2023-04-19T06:28:17;97535.78;;;9.90
78917;BMP280;68315;48.608;11.436;2023-04-19T06:30:43;97543.47;;;9.97
78917;BMP280;68315;48.608;11.436;2023-04-19T06:33:08;97549.41;;;10.01
78917;BMP280;68315;48.608;11.436;2023-04-19T06:35:33;97549.63;;;10.03
78917;BMP280;68315;48.608;11.436;2023-04-19T06:37:59;97541.56;;;10.10
78917;BMP280;68315;48.608;11.436;2023-04-19T06:40:25;97540.38;;;10.25
78917;BMP280;68315;48.608;11.436;2023-04-19T06:42:51;97540.00;;;10.34
78917;BMP280;68315;48.608;11.436;2023-04-19T06:45:17;97536.91;;;10.43
78917;BMP280;68315;48.608;11.436;2023-04-19T06:47:42;97544.03;;;10.51
78917;BMP280;68315;48.608;11.436;2023-04-19T06:50:08;97536.44;;;10.57
78917;BMP280;68315;48.608;11.436;2023-04-19T06:52:34;97532.44;;;10.58
78917;BMP280;68315;48.608;11.436;2023-04-19T06:54:59;97533.78;;;10.52
78917;BMP280;68315;48.608;11.436;2023-04-19T06:57:25;97532.34;;;10.45
78917;BMP280;68315;48.608;11.436;2023-04-19T06:59:50;97523.16;;;10.43
78917;BMP280;68315;48.608;11.436;2023-04-19T07:02:18;97524.84;;;10.46
78917;BMP280;68315;48.608;11.436;2023-04-19T07:04:43;97521.91;;;10.44
78917;BMP280;68315;48.608;11.436;2023-04-19T07:07:08;97518.09;;;10.47
78917;BMP280;68315;48.608;11.436;2023-04-19T07:09:33;97520.03;;;10.52
78917;BMP280;68315;48.608;11.436;2023-04-19T07:12:02;97523.34;;;10.63
78917;BMP280;68315;48.608;11.436;2023-04-19T07:14:27;97508.63;;;10.79
78917;BMP280;68315;48.608;11.436;2023-04-19T07:16:52;97512.91;;;10.93
78917;BMP280;68315;48.608;11.436;2023-04-19T07:19:18;97517.47;;;11.04
78917;BMP280;68315;48.608;11.436;2023-04-19T07:21:44;97511.47;;;11.19
78917;BMP280;68315;48.608;11.436;2023-04-19T07:24:09;97506.00;;;11.32
78917;BMP280;68315;48.608;11.436;2023-04-19T07:26:35;97509.41;;;11.38
78917;BMP280;68315;48.608;11.436;2023-04-19T07:29:01;97504.09;;;11.40
78917;BMP280;68315;48.608;11.436;2023-04-19T07:31:27;97513.44;;;11.50
78917;BMP280;68315;48.608;11.436;2023-04-19T07:33:53;97503.78;;;11.56
78917;BMP280;68315;48.608;11.436;2023-04-19T07:36:19;97500.16;;;11.61
78917;BMP280;68315;48.608;11.436;2023-04-19T07:38:45;97500.09;;;11.67
78917;BMP280;68315;48.608;11.436;2023-04-19T07:41:10;97497.22;;;11.72
78917;BMP280;68315;48.608;11.436;2023-04-19T07:43:36;97498.50;;;11.71
78917;BMP280;68315;48.608;11.436;2023-04-19T07:46:01;97498.28;;;11.69
78917;BMP280;68315;48.608;11.436;2023-04-19T07:48:32;97490.34;;;11.66
78917;BMP280;68315;48.608;11.436;2023-04-19T07:51:07;97493.53;;;11.57
78917;BMP280;68315;48.608;11.436;2023-04-19T07:53:32;97496.06;;;11.55
78917;BMP280;68315;48.608;11.436;2023-04-19T07:55:57;97491.50;;;11.57
78917;BMP280;68315;48.608;11.436;2023-04-19T07:58:23;97494.78;;;11.69
78917;BMP280;68315;48.608;11.436;2023-04-19T08:00:48;97494.03;;;11.82
78917;BMP280;68315;48.608;11.436;2023-04-19T08:03:13;97484.47;;;11.96
78917;BMP280;68315;48.608;11.436;2023-04-19T08:05:39;97485.53;;;12.06
78917;BMP280;68315;48.608;11.436;2023-04-19T08:08:04;97484.84;;;12.13
78917;BMP280;68315;48.608;11.436;2023-04-19T08:10:29;97485.47;;;12.19
78917;BMP280;68315;48.608;11.436;2023-04-19T08:12:55;97478.78;;;12.27
78917;BMP280;68315;48.608;11.436;2023-04-19T08:15:20;97485.56;;;12.26
78917;BMP280;68315;48.608;11.436;2023-04-19T08:17:45;97476.34;;;12.24
78917;BMP280;68315;48.608;11.436;2023-04-19T08:20:11;97478.56;;;12.25
78917;BMP280;68315;48.608;11.436;2023-04-19T08:22:36;97475.72;;;12.31
78917;BMP280;68315;48.608;11.436;2023-04-19T08:25:03;97472.50;;;12.40
78917;BMP280;68315;48.608;11.436;2023-04-19T08:27:29;97474.13;;;12.56
78917;BMP280;68315;48.608;11.436;2023-04-19T08:29:54;97471.22;;;12.61
78917;BMP280;68315;48.608;11.436;2023-04-19T08:32:22;97471.75;;;12.60
78917;BMP280;68315;48.608;11.436;2023-04-19T08:34:48;97466.44;;;12.62
78917;BMP280;68315;48.608;11.436;2023-04-19T08:37:14;97473.53;;;12.71
78917;BMP280;68315;48.608;11.436;2023-04-19T08:39:42;97480.38;;;12.77
78917;BMP280;68315;48.608;11.436;2023-04-19T08:42:08;97468.38;;;12.75
78917;BMP280;68315;48.608;11.436;2023-04-19T08:44:34;97467.44;;;12.72
78917;BMP280;68315;48.608;11.436;2023-04-19T08:47:02;97459.16;;;12.72
78917;BMP280;68315;48.608;11.436;2023-04-19T08:49:27;97463.41;;;12.73
78917;BMP280;68315;48.608;11.436;2023-04-19T08:51:54;97468.53;;;12.69
78917;BMP280;68315;48.608;11.436;2023-04-19T08:54:20;97464.31;;;12.68
78917;BMP280;68315;48.608;11.436;2023-04-19T08:56:46;97464.88;;;12.74
78917;BMP280;68315;48.608;11.436;2023-04-19T08:59:11;97459.97;;;12.80
78917;BMP280;68315;48.608;11.436;2023-04-19T09:01:38;97448.03;;;12.78
78917;BMP280;68315;48.608;11.436;2023-04-19T09:04:04;97455.81;;;12.66
78917;BMP280;68315;48.608;11.436;2023-04-19T09:06:35;97449.31;;;12.56
78917;BMP280;68315;48.608;11.436;2023-04-19T09:09:21;97445.50;;;12.46
78917;BMP280;68315;48.608;11.436;2023-04-19T09:11:47;97446.59;;;12.43
78917;BMP280;68315;48.608;11.436;2023-04-19T09:14:15;97449.59;;;12.32
78917;BMP280;68315;48.608;11.436;2023-04-19T09:16:47;97437.31;;;12.33
78917;BMP280;68315;48.608;11.436;2023-04-19T09:19:13;97436.44;;;12.38
78917;BMP280;68315;48.608;11.436;2023-04-19T09:21:40;97439.28;;;12.45
78917;BMP280;68315;48.608;11.436;2023-04-19T09:24:09;97431.28;;;12.55
78917;BMP280;68315;48.608;11.436;2023-04-19T09:26:35;97431.56;;;12.65
78917;BMP280;68315;48.608;11.436;2023-04-19T09:29:06;97432.34;;;12.73
78917;BMP280;68315;48.608;11.436;2023-04-19T09:31:35;97431.88;;;12.82
78917;BMP280;68315;48.608;11.436;2023-04-19T09:34:15;97429.72;;;12.88
78917;BMP280;68315;48.608;11.436;2023-04-19T09:36:41;97423.66;;;12.89
78917;BMP280;68315;48.608;11.436;2023-04-19T09:39:10;97418.94;;;12.97
78917;BMP280;68315;48.608;11.436;2023-04-19T09:41:51;97424.28;;;13.03
78917;BMP280;68315;48.608;11.436;2023-04-19T09:44:18;97418.81;;;13.10
78917;BMP280;68315;48.608;11.436;2023-04-19T09:46:43;97406.91;;;13.15
78917;BMP280;68315;48.608;11.436;2023-04-19T09:51:52;97410.66;;;12.97
78917;BMP280;68315;48.608;11.436;2023-04-19T09:54:19;97405.41;;;12.86
78917;BMP280;68315;48.608;11.436;2023-04-19T09:56:45;97413.38;;;12.69
78917;BMP280;68315;48.608;11.436;2023-04-19T09:59:11;97406.31;;;12.60
78917;BMP280;68315;48.608;11.436;2023-04-19T10:01:55;97399.09;;;12.50
78917;BMP280;68315;48.608;11.436;2023-04-19T10:04:21;97402.50;;;12.43
78917;BMP280;68315;48.608;11.436;2023-04-19T10:06:51;97409.22;;;12.34
78917;BMP280;68315;48.608;11.436;2023-04-19T10:09:21;97404.94;;;12.26
78917;BMP280;68315;48.608;11.436;2023-04-19T10:11:53;97396.06;;;12.20
78917;BMP280;68315;48.608;11.436;2023-04-19T10:14:23;97400.53;;;12.10
78917;BMP280;68315;48.608;11.436;2023-04-19T10:16:49;97391.25;;;12.00
78917;BMP280;68315;48.608;11.436;2023-04-19T10:19:15;97412.97;;;11.90
78917;BMP280;68315;48.608;11.436;2023-04-19T10:21:42;97393.63;;;11.83
78917;BMP280;68315;48.608;11.436;2023-04-19T10:24:08;97396.50;;;11.77
78917;BMP280;68315;48.608;11.436;2023-04-19T10:30:06;97389.16;;;11.59
78917;BMP280;68315;48.608;11.436;2023-04-19T10:32:42;97389.47;;;11.55
78917;BMP280;68315;48.608;11.436;2023-04-19T10:38:09;97389.06;;;11.38
78917;BMP280;68315;48.608;11.436;2023-04-19T10:43:16;97385.69;;;11.19
78917;BMP280;68315;48.608;11.436;2023-04-19T10:45:42;97383.13;;;11.08
78917;BMP280;68315;48.608;11.436;2023-04-19T10:51:14;97376.78;;;11.00
78917;BMP280;68315;48.608;11.436;2023-04-19T10:53:54;97376.59;;;10.98
78917;BMP280;68315;48.608;11.436;2023-04-19T10:59:13;97372.66;;;10.80
78917;BMP280;68315;48.608;11.436;2023-04-19T11:01:56;97366.53;;;10.74
78917;BMP280;68315;48.608;11.436;2023-04-19T11:04:56;97367.16;;;10.67
78917;BMP280;68315;48.608;11.436;2023-04-19T11:07:11;97370.53;;;10.60
78917;BMP280;68315;48.608;11.436;2023-04-19T11:09:47;97366.81;;;10.58
78917;BMP280;68315;48.608;11.436;2023-04-19T11:15:32;97358.84;;;10.54
78917;BMP280;68315;48.608;11.436;2023-04-19T11:21:29;97358.78;;;10.60
78917;BMP280;68315;48.608;11.436;2023-04-19T11:24:30;97360.16;;;10.66
78917;BMP280;68315;48.608;11.436;2023-04-19T11:27:07;97355.94;;;10.78
78917;BMP280;68315;48.608;11.436;2023-04-19T11:43:31;97334.47;;;10.77
78917;BMP280;68315;48.608;11.436;2023-04-19T11:46:10;97336.06;;;10.85
78917;BMP280;68315;48.608;11.436;2023-04-19T11:48:37;97337.34;;;10.98
78917;BMP280;68315;48.608;11.436;2023-04-19T11:51:14;97331.44;;;10.93
78917;BMP280;68315;48.608;11.436;2023-04-19T11:53:42;97336.81;;;10.86
78917;BMP280;68315;48.608;11.436;2023-04-19T11:58:59;97333.22;;;10.78
78917;BMP280;68315;48.608;11.436;2023-04-19T12:01:24;97323.59;;;10.71
78917;BMP280;68315;48.608;11.436;2023-04-19T12:03:56;97322.34;;;10.59
78917;BMP280;68315;48.608;11.436;2023-04-19T12:06:32;97325.38;;;10.56
78917;BMP280;68315;48.608;11.436;2023-04-19T12:08:58;97318.91;;;10.53
78917;BMP280;68315;48.608;11.436;2023-04-19T12:11:48;97322.41;;;10.54
78917;BMP280;68315;48.608;11.436;2023-04-19T12:14:21;97327.69;;;10.52
78917;BMP280;68315;48.608;11.436;2023-04-19T12:19:37;97321.03;;;10.34
78917;BMP280;68315;48.608;11.436;2023-04-19T12:22:14;97326.81;;;10.31
78917;BMP280;68315;48.608;11.436;2023-04-19T12:24:52;97322.28;;;10.33
78917;BMP280;68315;48.608;11.436;2023-04-19T12:27:23;97320.50;;;10.36
78917;BMP280;68315;48.608;11.436;2023-04-19T12:29:55;97322.34;;;10.28
78917;BMP280;68315;48.608;11.436;2023-04-19T12:32:22;97320.47;;;10.23
78917;BMP280;68315;48.608;11.436;2023-04-19T12:34:48;97314.00;;;10.20
78917;BMP280;68315;48.608;11.436;2023-04-19T12:37:19;97311.44;;;10.09
78917;BMP280;68315;48.608;11.436;2023-04-19T12:39:45;97316.78;;;10.01
78917;BMP280;68315;48.608;11.436;2023-04-19T12:42:14;97313.63;;;9.97
78917;BMP280;68315;48.608;11.436;2023-04-19T12:44:44;97319.25;;;9.86
78917;BMP280;68315;48.608;11.436;2023-04-19T12:47:15;97315.13;;;9.80
78917;BMP280;68315;48.608;11.436;2023-04-19T12:49:40;97312.00;;;9.70
78917;BMP280;68315;48.608;11.436;2023-04-19T12:52:11;97316.09;;;9.64
78917;BMP280;68315;48.608;11.436;2023-04-19T12:54:59;97314.59;;;9.63
78917;BMP280;68315;48.608;11.436;2023-04-19T12:57:34;97309.13;;;9.63
78917;BMP280;68315;48.608;11.436;2023-04-19T13:00:16;97315.34;;;9.63
78917;BMP280;68315;48.608;11.436;2023-04-19T13:02:41;97319.81;;;9.66
78917;BMP280;68315;48.608;11.436;2023-04-19T13:05:07;97318.22;;;9.71
78917;BMP280;68315;48.608;11.436;2023-04-19T13:07:33;97319.84;;;9.79
78917;BMP280;68315;48.608;11.436;2023-04-19T13:10:09;97318.91;;;9.77
78917;BMP280;68315;48.608;11.436;2023-04-19T13:12:36;97315.22;;;9.74
78917;BMP280;68315;48.608;11.436;2023-04-19T13:15:02;97313.84;;;9.62
78917;BMP280;68315;48.608;11.436;2023-04-19T13:17:27;97304.97;;;9.56
78917;BMP280;68315;48.608;11.436;2023-04-19T13:19:53;97313.59;;;9.47
78917;BMP280;68315;48.608;11.436;2023-04-19T13:22:21;97309.13;;;9.44
78917;BMP280;68315;48.608;11.436;2023-04-19T13:24:46;97319.44;;;9.38
78917;BMP280;68315;48.608;11.436;2023-04-19T13:27:17;97319.31;;;9.25
78917;BMP280;68315;48.608;11.436;2023-04-19T13:29:48;97322.13;;;9.19
78917;BMP280;68315;48.608;11.436;2023-04-19T13:32:14;97319.41;;;9.19
78917;BMP280;68315;48.608;11.436;2023-04-19T13:34:39;97301.41;;;9.24
78917;BMP280;68315;48.608;11.436;2023-04-19T13:37:07;97307.09;;;9.26
78917;BMP280;68315;48.608;11.436;2023-04-19T13:39:33;97311.56;;;9.29
78917;BMP280;68315;48.608;11.436;2023-04-19T13:41:59;97303.84;;;9.27
78917;BMP280;68315;48.608;11.436;2023-04-19T13:44:26;97307.31;;;9.28
78917;BMP280;68315;48.608;11.436;2023-04-19T13:46:51;97307.19;;;9.20
78917;BMP280;68315;48.608;11.436;2023-04-19T13:51:01;97296.97;;;9.21
78917;BMP280;68315;48.608;11.436;2023-04-19T14:42:15;97282.38;;;8.89
78917;BMP280;68315;48.608;11.436;2023-04-19T14:47:53;97267.44;;;8.90
78917;BMP280;68315;48.608;11.436;2023-04-19T15:11:56;97266.81;;;8.97
78917;BMP280;68315;48.608;11.436;2023-04-19T15:14:29;97264.69;;;8.90
78917;BMP280;68315;48.608;11.436;2023-04-19T15:16:57;97268.00;;;8.83
78917;BMP280;68315;48.608;11.436;2023-04-19T15:19:22;97267.19;;;8.88
78917;BMP280;68315;48.608;11.436;2023-04-19T15:21:48;97271.94;;;8.87
78917;BMP280;68315;48.608;11.436;2023-04-19T15:24:13;97270.63;;;8.94
78917;BMP280;68315;48.608;11.436;2023-04-19T15:29:35;97266.81;;;8.78
78917;BMP280;68315;48.608;11.436;2023-04-19T15:35:01;97271.59;;;8.72
78917;BMP280;68315;48.608;11.436;2023-04-19T15:37:26;97277.31;;;8.74
78917;BMP280;68315;48.608;11.436;2023-04-19T15:39:54;97275.72;;;8.84
78917;BMP280;68315;48.608;11.436;2023-04-19T15:42:20;97265.63;;;8.74
78917;BMP280;68315;48.608;11.436;2023-04-19T15:44:51;97277.31;;;8.74
78917;BMP280;68315;48.608;11.436;2023-04-19T15:47:16;97275.31;;;8.75
78917;BMP280;68315;48.608;11.436;2023-04-19T15:49:46;97276.50;;;8.79
78917;BMP280;68315;48.608;11.436;2023-04-19T15:52:32;97287.84;;;8.89
78917;BMP280;68315;48.608;11.436;2023-04-19T15:55:23;97280.22;;;8.82
78917;BMP280;68315;48.608;11.436;2023-04-19T15:57:56;97288.38;;;8.87
78917;BMP280;68315;48.608;11.436;2023-04-19T16:00:56;97274.00;;;8.81
78917;BMP280;68315;48.608;11.436;2023-04-19T16:03:50;97283.94;;;8.84
78917;BMP280;68315;48.608;11.436;2023-04-19T16:06:16;97278.16;;;8.88
78917;BMP280;68315;48.608;11.436;2023-04-19T16:08:41;97272.91;;;8.90
78917;BMP280;68315;48.608;11.436;2023-04-19T16:11:14;97281.53;;;8.99